Time;durP1;ratioP1;P1;durP2;ratioP2;P2;SDS_P1;SDS_P2;PMS_P1;PMS_P2;Temp;Humidity;BMP_temperature;BMP_pressure;BME280_temperature;BME280_humidity;BME280_pressure;Samples;Min_cycle;Max_cycle;Signal;HPM_P1;HPM_P2
2023/01/22 00:01:13;;;;;;;12.63;8.00;;;;;;;1.33;100.00;102912.41;5059319;28;20024;-75
2023/01/22 00:03:40;;;;;;;19.77;7.90;;;;;;;1.27;100.00;102906.41;5042743;28;20043;-76
2023/01/22 00:06:05;;;;;;;13.50;7.07;;;;;;;1.20;100.00;102900.38;5068565;28;20031;-76
2023/01/22 00:08:32;;;;;;;17.83;7.60;;;;;;;1.36;100.00;102904.28;5043814;28;20032;-76
2023/01/22 00:10:57;;;;;;;13.53;7.77;;;;;;;1.24;100.00;102902.03;5063277;28;20033;-76
2023/01/22 00:13:25;;;;;;;17.13;7.47;;;;;;;1.22;100.00;102895.84;5037345;28;20032;-76
2023/01/22 00:15:50;;;;;;;15.67;8.17;;;;;;;1.22;100.00;102898.53;5053758;28;20035;-75
2023/01/22 00:18:17;;;;;;;18.00;8.10;;;;;;;1.22;100.00;102895.84;5043764;28;20036;-76
2023/01/22 00:20:51;;;;;;;12.77;6.60;;;;;;;1.35;100.00;102899.88;5060505;28;20021;-76
2023/01/22 00:23:17;;;;;;;16.80;7.20;;;;;;;1.43;100.00;102896.97;5056360;28;20044;-76
2023/01/22 00:25:43;;;;;;;12.80;7.60;;;;;;;1.40;100.00;102890.88;5042025;28;20025;-76
2023/01/22 00:28:09;;;;;;;14.53;7.50;;;;;;;1.38;100.00;102898.94;5051093;28;20024;-76
2023/01/22 00:30:34;;;;;;;12.70;7.80;;;;;;;1.27;100.00;102891.25;5050289;28;20033;-76
2023/01/22 00:32:59;;;;;;;13.93;7.37;;;;;;;1.40;100.00;102896.22;5041571;28;20640;-76
2023/01/22 00:35:25;;;;;;;14.02;7.65;;;;;;;1.49;100.00;102896.75;5051221;28;20028;-76
2023/01/22 00:37:50;;;;;;;14.40;7.57;;;;;;;1.61;100.00;102892.81;5045784;28;20090;-76
2023/01/22 00:40:16;;;;;;;10.27;7.05;;;;;;;1.60;100.00;102893.75;5051859;28;20044;-76
2023/01/22 00:42:42;;;;;;;12.88;6.68;;;;;;;1.60;100.00;102893.75;5068427;28;20028;-75
2023/01/22 00:45:07;;;;;;;12.30;7.38;;;;;;;1.66;100.00;102893.56;5058694;28;20021;-76
2023/01/22 00:47:34;;;;;;;13.05;7.50;;;;;;;1.46;100.00;102896.00;5047789;28;20028;-76
2023/01/22 00:50:00;;;;;;;16.67;7.93;;;;;;;1.57;100.00;102883.19;5055702;28;20032;-76
2023/01/22 00:52:26;;;;;;;9.93;6.73;;;;;;;1.53;100.00;102887.75;5036858;28;20037;-76
2023/01/22 00:54:51;;;;;;;12.83;7.87;;;;;;;1.30;100.00;102869.81;5040309;28;20055;-76
2023/01/22 00:57:20;;;;;;;13.90;7.83;;;;;;;1.35;100.00;102873.19;5066427;28;20129;-76
2023/01/22 00:59:46;;;;;;;12.77;6.97;;;;;;;1.36;100.00;102880.28;5045268;28;20036;-76
2023/01/22 01:02:12;;;;;;;10.27;6.87;;;;;;;1.24;100.00;102886.03;5045740;28;20094;-76
2023/01/22 01:04:37;;;;;;;12.37;7.20;;;;;;;1.17;100.00;102879.13;5045079;28;20025;-76
2023/01/22 01:07:03;;;;;;;13.33;7.63;;;;;;;1.30;100.00;102875.16;5048302;28;20033;-76
2023/01/22 01:09:29;;;;;;;16.27;7.27;;;;;;;1.30;100.00;102875.16;5052487;28;20424;-76
2023/01/22 01:11:54;;;;;;;13.03;8.10;;;;;;;1.24;100.00;102867.34;5056041;28;20032;-77
2023/01/22 01:14:19;;;;;;;14.13;8.10;;;;;;;1.20;100.00;102863.03;5039543;28;20147;-76
2023/01/22 01:16:45;;;;;;;11.77;7.00;;;;;;;1.25;100.00;102861.09;5050111;28;20025;-77
2023/01/22 01:19:11;;;;;;;11.00;6.67;;;;;;;1.29;100.00;102868.06;5063535;28;20041;-75
2023/01/22 01:21:37;;;;;;;15.47;7.93;;;;;;;1.30;100.00;102872.50;5039392;28;20025;-77
2023/01/22 01:24:03;;;;;;;11.73;7.07;;;;;;;1.39;100.00;102878.44;5039005;28;20021;-75
2023/01/22 01:26:29;;;;;;;12.43;6.67;;;;;;;1.33;100.00;102869.72;5038249;28;20429;-77
2023/01/22 01:28:54;;;;;;;14.50;6.73;;;;;;;1.32;100.00;102873.31;5047124;28;20070;-76
2023/01/22 01:31:21;;;;;;;7.90;5.87;;;;;;;1.34;100.00;102875.91;5057991;28;20105;-77
2023/01/22 01:33:48;;;;;;;11.03;6.50;;;;;;;1.43;100.00;102874.75;5042135;28;20037;-77
2023/01/22 01:36:16;;;;;;;17.07;7.40;;;;;;;1.45;100.00;102867.56;5058861;28;20028;-75
2023/01/22 01:38:43;;;;;;;14.83;6.60;;;;;;;1.35;100.00;102873.19;5037572;28;20025;-75
2023/01/22 01:41:11;;;;;;;24.13;8.50;;;;;;;1.23;100.00;102862.91;5055632;28;20051;-75
2023/01/22 01:43:36;;;;;;;9.27;5.73;;;;;;;1.34;100.00;102871.44;5057545;28;20035;-75
2023/01/22 01:46:03;;;;;;;11.23;6.37;;;;;;;1.40;100.00;102869.50;5040734;28;20033;-75
2023/01/22 01:48:42;;;;;;;13.50;6.70;;;;;;;1.35;100.00;102873.19;5050776;28;20090;-75
2023/01/22 01:51:13;;;;;;;11.63;6.47;;;;;;;1.43;100.00;102869.41;5040997;28;20037;-75
2023/01/22 01:53:40;;;;;;;15.97;7.20;;;;;;;1.38;100.00;102866.03;5062244;28;20123;-75
2023/01/22 01:56:11;;;;;;;12.60;7.40;;;;;;;1.26;100.00;102873.50;5047158;28;20116;-74
2023/01/22 01:58:38;;;;;;;10.80;5.80;;;;;;;1.23;100.00;102873.59;5046514;28;20029;-75
2023/01/22 02:01:09;;;;;;;15.77;6.83;;;;;;;1.28;100.00;102866.31;5036142;28;20024;-75
2023/01/22 02:03:34;;;;;;;11.87;7.30;;;;;;;1.25;100.00;102866.44;5042305;28;20060;-74
2023/01/22 02:05:59;;;;;;;15.73;7.50;;;;;;;1.26;100.00;102868.16;5046714;28;20059;-75
2023/01/22 02:08:25;;;;;;;13.00;6.40;;;;;;;1.40;100.00;102869.50;5054101;28;20029;-75
2023/01/22 02:10:52;;;;;;;13.60;7.33;;;;;;;1.27;100.00;102869.91;5045773;28;20033;-74
2023/01/22 02:13:25;;;;;;;16.27;7.17;;;;;;;1.22;100.00;102863.84;5038856;28;20025;-75
2023/01/22 02:15:50;;;;;;;9.67;6.37;;;;;;;1.26;100.00;102865.50;5037569;28;20115;-75
2023/01/22 02:18:16;;;;;;;12.70;6.50;;;;;;;1.38;100.00;102863.38;5056998;28;20244;-75
2023/01/22 02:20:51;;;;;;;11.10;7.00;;;;;;;1.41;100.00;102871.25;5043310;28;20057;-75
2023/01/22 02:23:17;;;;;;;13.27;6.47;;;;;;;1.50;100.00;102873.59;5025811;28;20029;-75
2023/01/22 02:25:42;;;;;;;14.93;6.90;;;;;;;1.45;100.00;102862.25;5048846;28;20370;-75
2023/01/22 02:28:07;;;;;;;11.00;6.40;;;;;;;1.35;100.00;102862.53;5040708;28;20049;-75
2023/01/22 02:30:33;;;;;;;10.17;6.90;;;;;;;1.30;100.00;102859.16;5045476;28;20033;-75
2023/01/22 02:32:58;;;;;;;16.77;6.90;;;;;;;1.38;100.00;102850.88;5030357;28;20084;-75
2023/01/22 02:35:23;;;;;;;11.90;7.07;;;;;;;1.34;100.00;102860.78;5047565;28;20031;-75
2023/01/22 02:37:49;;;;;;;11.77;6.57;;;;;;;1.40;100.00;102859.72;5040624;28;20114;-75
2023/01/22 02:40:14;;;;;;;16.10;7.07;;;;;;;1.26;100.00;102852.16;5040409;28;20436;-75
2023/01/22 02:42:40;;;;;;;10.60;7.40;;;;;;;1.24;100.00;102848.69;5059662;28;20030;-75
2023/01/22 02:45:06;;;;;;;13.23;7.00;;;;;;;1.18;100.00;102864.88;5037137;28;20029;-74
2023/01/22 02:47:34;;;;;;;10.67;7.10;;;;;;;1.21;100.00;102854.09;5029201;28;20017;-74
2023/01/22 02:50:00;;;;;;;13.70;7.67;;;;;;;1.23;100.00;102856.72;5044340;28;20029;-74
2023/01/22 02:52:25;;;;;;;15.07;6.90;;;;;;;1.16;100.00;102850.69;5036528;28;20029;-75
2023/01/22 02:54:51;;;;;;;15.77;7.40;;;;;;;1.24;100.00;102864.69;5063270;28;20515;-74
2023/01/22 02:57:16;;;;;;;14.02;7.15;;;;;;;1.35;100.00;102862.53;5045226;28;20068;-74
2023/01/22 02:59:41;;;;;;;13.47;7.53;;;;;;;1.34;100.00;102855.44;5044241;28;20111;-75
2023/01/22 03:02:07;;;;;;;14.33;7.90;;;;;;;1.19;100.00;102861.28;5048812;28;20028;-75
2023/01/22 03:04:32;;;;;;;12.67;6.97;;;;;;;1.22;100.00;102850.50;5042443;28;20025;-75
2023/01/22 03:06:57;;;;;;;13.30;7.53;;;;;;;1.19;100.00;102839.94;5042297;28;20075;-74
2023/01/22 03:09:23;;;;;;;18.60;8.47;;;;;;;1.25;100.00;102850.41;5051579;28;20024;-75
2023/01/22 03:11:48;;;;;;;14.30;7.60;;;;;;;1.34;100.00;102855.44;5043495;28;20031;-74
2023/01/22 03:22:27;;;;;;;14.97;7.77;;;;;;;1.31;100.00;102844.88;5057747;28;20086;-75
2023/01/22 03:24:52;;;;;;;15.37;7.90;;;;;;;1.33;100.00;102843.03;5052138;28;20024;-75
2023/01/22 03:27:20;;;;;;;12.27;7.40;;;;;;;1.39;100.00;102841.09;5043580;28;20032;-77
2023/01/22 03:29:46;;;;;;;18.60;7.63;;;;;;;1.42;100.00;102840.97;5070342;28;20032;-75
2023/01/22 03:32:11;;;;;;;15.90;7.67;;;;;;;1.40;100.00;102849.03;5040170;28;20461;-75
2023/01/22 03:34:37;;;;;;;14.37;6.90;;;;;;;1.46;100.00;102845.28;5047748;28;20024;-75
2023/01/22 03:37:03;;;;;;;11.80;6.73;;;;;;;1.36;100.00;102848.25;5050253;28;20049;-75
2023/01/22 03:39:30;;;;;;;16.83;7.67;;;;;;;1.30;100.00;102837.81;5068997;28;20043;-75
2023/01/22 03:41:55;;;;;;;16.10;7.83;;;;;;;1.29;100.00;102836.03;5051919;28;20036;-75
2023/01/22 03:44:21;;;;;;;18.93;7.53;;;;;;;1.23;100.00;102836.22;5031432;28;20044;-75
2023/01/22 03:46:46;;;;;;;19.33;8.43;;;;;;;1.24;100.00;102832.66;5063811;28;20028;-75
2023/01/22 03:49:13;;;;;;;17.23;7.67;;;;;;;1.18;100.00;102840.88;5056532;28;20028;-75
2023/01/22 03:51:38;;;;;;;14.67;7.53;;;;;;;1.25;100.00;102839.75;5041457;28;20042;-74
2023/01/22 03:54:04;;;;;;;16.97;8.13;;;;;;;1.32;100.00;102838.63;5049472;28;20079;-75
2023/01/22 03:56:29;;;;;;;10.40;6.90;;;;;;;1.40;100.00;102841.03;5037186;28;20074;-75
2023/01/22 03:58:55;;;;;;;13.73;6.97;;;;;;;1.33;100.00;102832.34;5042652;28;20043;-74
2023/01/22 04:01:23;;;;;;;17.93;8.03;;;;;;;1.18;100.00;102832.88;5043615;28;20024;-74
2023/01/22 04:03:49;;;;;;;12.33;7.10;;;;;;;1.28;100.00;102844.09;5052061;28;20462;-75
2023/01/22 04:06:16;;;;;;;12.80;7.50;;;;;;;1.29;100.00;102846.72;5038545;28;20037;-74
2023/01/22 04:08:44;;;;;;;12.03;7.07;;;;;;;1.45;100.00;102840.88;5030347;28;20105;-75
2023/01/22 04:11:09;;;;;;;10.23;7.13;;;;;;;1.48;100.00;102835.44;5047621;28;20117;-74
2023/01/22 04:13:37;;;;;;;26.07;7.53;;;;;;;1.32;100.00;102829.75;5042997;28;20107;-75
2023/01/22 04:16:03;;;;;;;17.90;7.63;;;;;;;1.22;100.00;102834.50;5049901;28;20037;-75
2023/01/22 04:18:29;;;;;;;12.47;6.93;;;;;;;1.23;100.00;102844.22;5044148;28;20510;-74
2023/01/22 04:20:55;;;;;;;19.97;8.33;;;;;;;1.40;100.00;102848.16;5047786;28;20029;-75
2023/01/22 04:23:21;;;;;;;18.87;7.87;;;;;;;1.40;100.00;102857.03;5034701;28;20085;-74
2023/01/22 04:25:46;;;;;;;13.80;7.83;;;;;;;1.43;100.00;102842.72;5068027;28;20039;-74
2023/01/22 04:28:16;;;;;;;17.70;7.00;;;;;;;1.42;100.00;102841.84;5050382;28;20552;-74
2023/01/22 04:30:42;;;;;;;12.53;7.27;;;;;;;1.48;100.00;102846.09;5042133;28;20088;-75
2023/01/22 04:33:08;;;;;;;18.90;7.57;;;;;;;1.50;100.00;102849.59;5042605;28;20048;-75
2023/01/22 04:35:34;;;;;;;16.33;6.70;;;;;;;1.48;100.00;102836.28;5063359;28;20055;-75
2023/01/22 04:38:00;;;;;;;15.70;7.30;;;;;;;1.60;100.00;102845.69;5038037;28;20389;-75
2023/01/22 04:40:26;;;;;;;12.73;7.27;;;;;;;1.55;100.00;102842.31;5039224;28;20031;-75
2023/01/22 04:42:51;;;;;;;12.80;7.07;;;;;;;1.51;100.00;102835.34;5064097;28;20330;-75
2023/01/22 04:45:17;;;;;;;17.77;7.20;;;;;;;1.52;100.00;102831.75;5044545;28;20028;-74
2023/01/22 04:47:46;;;;;;;16.47;7.03;;;;;;;1.65;100.00;102827.72;5040886;28;20025;-75
2023/01/22 04:50:22;;;;;;;14.80;7.63;;;;;;;1.54;100.00;102824.53;5048294;28;20043;-77
2023/01/22 04:52:52;;;;;;;11.77;6.77;;;;;;;1.36;100.00;102826.91;5050969;28;20024;-74
2023/01/22 04:55:18;;;;;;;14.67;6.97;;;;;;;1.39;100.00;102819.72;5044397;28;20123;-75
2023/01/22 04:57:43;;;;;;;12.50;6.83;;;;;;;1.48;100.00;102822.06;5049186;28;20517;-75
2023/01/22 05:00:10;;;;;;;13.23;7.07;;;;;;;1.58;100.00;102821.72;5042632;28;20098;-75
2023/01/22 05:02:36;;;;;;;15.43;7.40;;;;;;;1.54;100.00;102821.88;5060333;28;20139;-75
2023/01/22 05:05:02;;;;;;;15.67;7.40;;;;;;;1.48;100.00;102824.75;5047244;28;20036;-75
2023/01/22 05:07:27;;;;;;;14.77;6.90;;;;;;;1.47;100.00;102828.34;5043923;28;20025;-75
2023/01/22 05:09:53;;;;;;;12.97;7.33;;;;;;;1.45;100.00;102832.88;5035384;28;20029;-75
2023/01/22 05:12:18;;;;;;;10.93;6.90;;;;;;;1.60;100.00;102835.00;5047235;28;20022;-75
2023/01/22 05:14:44;;;;;;;17.80;7.10;;;;;;;1.73;100.00;102832.78;5040888;28;20022;-75
2023/01/22 05:17:09;;;;;;;13.13;7.47;;;;;;;1.61;100.00;102826.06;5046156;28;20028;-75
2023/01/22 05:19:36;;;;;;;12.77;6.80;;;;;;;1.65;100.00;102833.06;5049300;28;20085;-75
2023/01/22 05:22:03;;;;;;;17.53;7.57;;;;;;;1.64;100.00;102820.66;5041022;28;20020;-75
2023/01/22 05:24:28;;;;;;;18.47;7.10;;;;;;;1.55;100.00;102827.16;5066740;28;20119;-75
2023/01/22 05:26:54;;;;;;;15.90;6.80;;;;;;;1.56;100.00;102825.34;5038073;28;20139;-75
2023/01/22 05:29:24;;;;;;;19.08;7.38;;;;;;;1.55;100.00;102826.28;5066486;28;20074;-76
2023/01/22 05:31:50;;;;;;;12.70;6.90;;;;;;;1.70;100.00;102831.13;5066846;28;20016;-75
2023/01/22 05:34:15;;;;;;;19.63;7.43;;;;;;;1.71;100.00;102838.19;5048485;28;20088;-75
2023/01/22 05:36:41;;;;;;;14.53;7.10;;;;;;;1.60;100.00;102825.22;5060724;28;20103;-75
2023/01/22 05:39:06;;;;;;;11.38;6.93;;;;;;;1.78;100.00;102834.38;5045931;28;20048;-75
2023/01/22 05:41:31;;;;;;;10.77;6.30;;;;;;;1.77;100.00;102827.31;5046056;28;20025;-75
2023/01/22 05:43:57;;;;;;;13.30;7.43;;;;;;;1.70;100.00;102831.13;5048497;28;20339;-75
2023/01/22 05:46:22;;;;;;;14.55;6.65;;;;;;;1.79;100.00;102846.81;5058034;28;20020;-75
2023/01/22 05:48:47;;;;;;;12.80;7.55;;;;;;;1.68;100.00;102843.63;5039147;28;20021;-75
2023/01/22 05:51:13;;;;;;;13.93;6.75;;;;;;;1.76;100.00;102835.34;5029008;28;20036;-75
2023/01/22 05:53:38;;;;;;;12.13;7.00;;;;;;;1.60;100.00;102825.22;5042925;28;20092;-75
2023/01/22 05:56:05;;;;;;;16.97;7.43;;;;;;;1.66;100.00;102834.81;5051367;28;20028;-76
2023/01/22 05:58:31;;;;;;;14.07;7.43;;;;;;;1.63;100.00;102840.28;5037513;28;20075;-75
2023/01/22 06:00:57;;;;;;;12.90;7.03;;;;;;;1.60;100.00;102840.34;5047687;28;20017;-75
2023/01/22 06:03:23;;;;;;;11.70;7.10;;;;;;;1.72;100.00;102845.28;5048685;28;20142;-76
2023/01/22 06:06:04;;;;;;;20.93;6.77;;;;;;;2.05;100.00;102853.03;5048353;28;20472;-75
2023/01/22 06:08:29;;;;;;;23.87;8.47;;;;;;;1.69;100.00;102848.03;5037052;28;20019;-75
2023/01/22 06:11:00;;;;;;;13.93;7.17;;;;;;;1.70;100.00;102846.28;5066783;28;20024;-75
2023/01/22 06:13:26;;;;;;;16.80;7.30;;;;;;;1.64;100.00;102844.69;5058940;28;20047;-75
2023/01/22 06:15:52;;;;;;;15.47;7.43;;;;;;;1.62;100.00;102854.53;5051041;28;20017;-75
2023/01/22 06:18:19;;;;;;;16.13;7.17;;;;;;;1.74;100.00;102848.75;5031767;28;20409;-75
2023/01/22 06:20:44;;;;;;;18.87;7.27;;;;;;;1.73;100.00;102847.03;5045043;28;20032;-76
2023/01/22 06:23:09;;;;;;;19.70;8.00;;;;;;;1.64;100.00;102842.00;5039150;28;20025;-75
2023/01/22 06:25:35;;;;;;;20.92;7.30;;;;;;;1.77;100.00;102839.78;5058700;28;20020;-75
2023/01/22 06:28:00;;;;;;;14.35;6.70;;;;;;;1.70;100.00;102836.47;5036485;28;20022;-75
2023/01/22 06:30:26;;;;;;;15.10;7.13;;;;;;;1.79;100.00;102846.81;5043044;28;20033;-75
2023/01/22 06:32:52;;;;;;;16.10;7.40;;;;;;;1.82;100.00;102846.69;5025293;28;20052;-75
2023/01/22 06:35:18;;;;;;;15.30;7.20;;;;;;;1.83;100.00;102843.13;5048961;28;20028;-75
2023/01/22 06:37:43;;;;;;;15.80;8.10;;;;;;;1.77;100.00;102848.66;5048702;28;20021;-75
2023/01/22 06:40:09;;;;;;;16.90;8.17;;;;;;;1.75;100.00;102839.81;5036581;28;20029;-75
2023/01/22 06:42:38;;;;;;;20.07;7.73;;;;;;;1.66;100.00;102840.16;5044969;28;20020;-75
2023/01/22 06:45:04;;;;;;;15.10;7.60;;;;;;;1.81;100.00;102850.28;5052644;28;20032;-75
2023/01/22 06:47:30;;;;;;;22.00;8.30;;;;;;;1.88;100.00;102851.81;5047203;28;20059;-75
2023/01/22 06:49:56;;;;;;;30.10;7.87;;;;;;;1.94;100.00;102847.19;5057944;28;20025;-77
2023/01/22 06:52:21;;;;;;;15.57;7.30;;;;;;;1.69;100.00;102856.06;5049600;28;20042;-76
2023/01/22 06:54:46;;;;;;;16.13;7.50;;;;;;;1.77;100.00;102856.69;5047549;28;20025;-77
2023/01/22 06:57:12;;;;;;;18.43;7.90;;;;;;;1.81;100.00;102855.63;5048716;28;20025;-77
2023/01/22 06:59:37;;;;;;;19.77;7.82;;;;;;;1.96;100.00;102853.38;5050607;28;20027;-77
2023/01/22 07:02:03;;;;;;;16.48;7.97;;;;;;;1.89;100.00;102866.94;5047461;28;20151;-74
2023/01/22 07:04:28;;;;;;;26.00;8.38;;;;;;;1.96;100.00;102858.72;5045184;28;20107;-77
2023/01/22 07:06:53;;;;;;;24.90;7.77;;;;;;;1.93;100.00;102874.84;5066043;28;20048;-77
2023/01/22 07:09:19;;;;;;;18.25;7.68;;;;;;;1.99;100.00;102869.28;5060762;28;20109;-77
2023/01/22 07:11:44;;;;;;;20.83;8.07;;;;;;;1.91;100.00;102866.88;5037987;28;20033;-76
2023/01/22 07:14:10;;;;;;;19.77;8.07;;;;;;;1.97;100.00;102871.16;5064381;28;20118;-77
2023/01/22 07:16:35;;;;;;;23.52;7.78;;;;;;;1.97;100.00;102876.50;5066304;28;20025;-77
2023/01/22 07:19:00;;;;;;;27.88;8.68;;;;;;;2.10;100.00;102877.81;5067774;28;20392;-76
2023/01/22 07:21:26;;;;;;;22.05;8.98;;;;;;;2.09;100.00;102871.59;5045391;28;20074;-77
2023/01/22 07:23:51;;;;;;;16.42;7.45;;;;;;;2.10;100.00;102872.47;5043287;28;20039;-77
2023/01/22 07:26:17;;;;;;;17.87;7.97;;;;;;;2.11;100.00;102884.88;5041060;28;20028;-76
2023/01/22 07:28:43;;;;;;;20.15;8.35;;;;;;;2.11;100.00;102874.19;5047505;28;20397;-77
2023/01/22 07:31:10;;;;;;;20.90;7.97;;;;;;;2.09;100.00;102886.75;5038495;28;20036;-77
2023/01/22 07:33:35;;;;;;;20.02;8.18;;;;;;;2.07;100.00;102888.59;5040093;28;20499;-77
2023/01/22 07:36:01;;;;;;;20.17;7.55;;;;;;;2.09;100.00;102878.72;5051137;28;20032;-77
2023/01/22 07:38:27;;;;;;;18.88;8.32;;;;;;;2.07;100.00;102888.59;5050351;28;20052;-77
2023/01/22 07:40:53;;;;;;;23.42;8.20;;;;;;;2.08;100.00;102895.66;5044994;28;20039;-77
2023/01/22 07:43:18;;;;;;;21.35;8.57;;;;;;;2.03;100.00;102894.97;5045013;28;20036;-76
2023/01/22 07:45:43;;;;;;;20.63;8.27;;;;;;;2.01;100.00;102883.44;5046915;28;20028;-77
2023/01/22 07:48:12;;;;;;;16.95;6.88;;;;;;;2.13;100.00;102904.41;5046576;28;20024;-77
2023/01/22 07:50:39;;;;;;;28.80;14.45;;;;;;;2.07;100.00;102905.50;5046646;28;20028;-76
2023/01/22 07:53:05;;;;;;;32.83;10.07;;;;;;;2.13;100.00;102899.94;5050563;28;20032;-77
2023/01/22 07:55:31;;;;;;;16.75;8.23;;;;;;;2.10;100.00;102904.53;5043799;28;20081;-77
2023/01/22 07:58:03;;;;;;;27.85;8.00;;;;;;;2.21;100.00;102905.00;5068775;28;20021;-76
2023/01/22 08:00:29;;;;;;;30.30;8.00;;;;;;;2.17;100.00;102911.41;5031418;28;20021;-77
2023/01/22 08:02:55;;;;;;;20.05;7.80;;;;;;;2.25;100.00;102909.31;5039383;28;20473;-76
2023/01/22 08:05:21;;;;;;;19.30;7.70;;;;;;;2.22;100.00;102914.78;5066172;28;20115;-72
2023/01/22 08:07:46;;;;;;;26.75;9.20;;;;;;;2.29;100.00;102910.97;5045062;28;20040;-70
2023/01/22 08:10:13;;;;;;;16.52;7.55;;;;;;;2.32;100.00;102916.19;5054205;28;20092;-73
2023/01/22 08:12:40;;;;;;;24.13;7.68;;;;;;;2.40;100.00;102929.28;5054165;28;20101;-71
2023/01/22 08:15:07;;;;;;;20.08;7.15;;;;;;;2.38;100.00;102926.66;5040620;28;20035;-73
2023/01/22 08:17:32;;;;;;;35.13;9.07;;;;;;;2.37;100.00;102924.06;5046809;28;20024;-74
2023/01/22 08:19:58;;;;;;;26.75;8.07;;;;;;;2.30;100.00;102939.44;5043982;28;20028;-72
2023/01/22 08:22:23;;;;;;;20.15;7.75;;;;;;;2.31;100.00;102930.47;5041495;28;20024;-72
2023/01/22 08:24:48;;;;;;;26.55;7.97;;;;;;;2.24;100.00;102928.97;5040282;28;20029;-70
2023/01/22 08:27:14;;;;;;;26.25;9.40;;;;;;;2.15;100.00;102939.94;5044965;28;20094;-70
2023/01/22 08:29:39;;;;;;;27.15;7.97;;;;;;;2.32;100.00;102929.56;5046920;28;20026;-74
2023/01/22 08:32:05;;;;;;;21.15;8.70;;;;;;;2.28;100.00;102941.31;5051032;28;20024;-73
2023/01/22 08:34:31;;;;;;;19.42;7.97;;;;;;;2.32;100.00;102937.56;5047325;28;20048;-73
2023/01/22 08:36:56;;;;;;;17.98;7.43;;;;;;;2.28;100.00;102941.31;5047297;28;20054;-71
2023/01/22 08:39:22;;;;;;;23.42;8.02;;;;;;;2.21;100.00;102934.41;5048090;28;20035;-72
2023/01/22 08:41:47;;;;;;;17.13;7.70;;;;;;;2.29;100.00;102940.38;5044189;28;20025;-73
2023/01/22 08:44:12;;;;;;;23.40;7.82;;;;;;;2.41;100.00;102947.97;5046463;28;20102;-71
2023/01/22 08:46:39;;;;;;;21.13;7.60;;;;;;;2.39;100.00;102939.09;5044486;28;20043;-73
2023/01/22 08:49:06;;;;;;;17.42;7.65;;;;;;;2.41;100.00;102931.91;5034005;28;20013;-73
2023/01/22 08:51:31;;;;;;;18.90;6.97;;;;;;;2.22;100.00;102936.16;5043501;28;20033;-73
2023/01/22 08:53:57;;;;;;;18.08;7.18;;;;;;;2.25;100.00;102937.84;5046017;28;20115;-76
2023/01/22 08:56:22;;;;;;;18.02;7.22;;;;;;;2.32;100.00;102948.25;5035036;28;20249;-73
2023/01/22 08:58:49;;;;;;;15.75;7.72;;;;;;;2.25;100.00;102952.09;5033169;28;20025;-72
2023/01/22 09:01:17;;;;;;;19.88;7.90;;;;;;;2.43;100.00;102950.56;5040996;28;20024;-75
2023/01/22 09:03:43;;;;;;;16.42;7.00;;;;;;;2.45;100.00;102944.22;5053147;28;20028;-71
2023/01/22 09:06:09;;;;;;;17.25;6.47;;;;;;;2.39;100.00;102944.44;5043121;28;20104;-72
2023/01/22 09:08:34;;;;;;;19.90;6.78;;;;;;;2.37;100.00;102951.66;5037305;28;20040;-73
2023/01/22 09:11:02;;;;;;;24.45;8.00;;;;;;;2.50;100.00;102952.09;5034106;28;20068;-72
2023/01/22 09:13:27;;;;;;;22.17;8.25;;;;;;;2.59;100.00;102956.22;5043234;28;20234;-73
2023/01/22 09:15:55;;;;;;;22.40;7.82;;;;;;;2.46;100.00;102950.44;5039577;28;20108;-74
2023/01/22 09:18:20;;;;;;;27.77;7.05;;;;;;;2.39;100.00;102954.25;5045635;28;20052;-72
2023/01/22 09:20:46;;;;;;;21.00;8.15;;;;;;;2.39;100.00;102955.13;5033415;28;20064;-73
2023/01/22 09:23:11;;;;;;;16.15;6.30;;;;;;;2.50;100.00;102951.22;5032334;28;20033;-72
2023/01/22 09:25:36;;;;;;;20.63;7.85;;;;;;;2.49;100.00;102944.13;5040870;28;20027;-74
2023/01/22 09:28:06;;;;;;;16.88;6.50;;;;;;;2.49;100.00;102941.47;5039712;28;20024;-73
2023/01/22 09:30:31;;;;;;;14.05;5.78;;;;;;;2.47;100.00;102945.97;5026079;28;20439;-71
2023/01/22 09:32:57;;;;;;;17.98;6.70;;;;;;;2.52;100.00;102949.34;5031468;28;20486;-73
2023/01/22 09:35:23;;;;;;;21.60;6.05;;;;;;;2.70;100.00;102954.03;5022455;28;20056;-74
2023/01/22 09:37:52;;;;;;;17.67;7.72;;;;;;;2.54;100.00;102947.50;5043310;28;20036;-70
2023/01/22 09:40:24;;;;;;;17.75;6.05;;;;;;;2.60;100.00;102952.63;5042512;28;20024;-72
2023/01/22 09:42:51;;;;;;;23.30;7.63;;;;;;;2.71;100.00;102955.78;5055047;28;20026;-74
2023/01/22 09:45:18;;;;;;;18.83;7.70;;;;;;;2.68;100.00;102955.91;5045672;28;20024;-72
2023/01/22 09:47:52;;;;;;;17.58;5.97;;;;;;;2.77;100.00;102944.84;5027619;28;20392;-73
2023/01/22 09:50:30;;;;;;;36.40;10.02;;;;;;;2.83;100.00;102949.97;5046048;28;20025;-74
2023/01/22 09:52:59;;;;;;;22.00;7.40;;;;;;;2.90;100.00;102956.84;5041165;28;20077;-74
2023/01/22 09:55:29;;;;;;;28.25;6.93;;;;;;;2.92;100.00;102944.28;5042956;28;20059;-74
2023/01/22 09:57:58;;;;;;;28.40;6.50;;;;;;;2.89;100.00;102944.41;5044303;28;20032;-73
2023/01/22 10:00:45;;;;;;;18.40;5.75;;;;;;;2.98;100.00;102960.09;5043810;28;20025;-73
2023/01/22 10:03:22;;;;;;;15.60;7.18;;;;;;;2.97;100.00;102953.00;5039670;28;20021;-72
2023/01/22 10:05:54;;;;;;;17.77;7.07;;;;;;;3.07;100.00;102952.69;5063213;28;20021;-71
2023/01/22 10:08:30;;;;;;;21.25;5.80;;;;;;;3.09;100.00;102961.50;5041236;28;20055;-72
2023/01/22 10:10:57;;;;;;;20.58;6.57;;;;;;;3.10;100.00;102949.88;5037842;28;20020;-73
2023/01/22 10:13:26;;;;;;;21.23;5.95;;;;;;;3.21;100.00;102955.69;5067000;28;20031;-75
2023/01/22 10:15:53;;;;;;;15.77;6.38;;;;;;;3.16;100.00;102957.66;5047146;28;20020;-75
2023/01/22 10:18:36;;;;;;;20.80;5.80;;;;;;;3.31;100.00;102956.19;5043657;28;20147;-73
2023/01/22 10:21:06;;;;;;;25.33;6.68;;;;;;;3.21;100.00;102953.00;5046207;28;20032;-75
2023/01/22 10:23:33;;;;;;;33.45;5.93;;;;;;;3.26;100.00;102953.72;5051979;28;20028;-74
2023/01/22 10:26:23;;;;;;;17.60;5.75;;;;;;;3.54;100.00;102958.84;5040852;28;20020;-75
2023/01/22 10:28:51;;;;;;;16.15;5.60;;;;;;;3.45;100.00;102949.34;5045389;28;20508;-74
2023/01/22 10:31:34;;;;;;;22.15;5.80;;;;;;;3.51;100.00;102943.75;5041994;28;20090;-76
2023/01/22 10:34:15;;;;;;;17.30;5.22;;;;;;;3.34;100.00;102940.88;5042829;28;20417;-72
2023/01/22 10:36:48;;;;;;;14.70;5.35;;;;;;;3.35;100.00;102939.06;5047213;28;20043;-72
2023/01/22 10:39:15;;;;;;;22.90;6.03;;;;;;;3.36;100.00;102939.00;5042516;28;20059;-73
2023/01/22 10:41:41;;;;;;;22.15;5.43;;;;;;;3.42;100.00;102944.13;5066875;28;20021;-74
2023/01/22 10:44:18;;;;;;;18.42;5.78;;;;;;;3.42;100.00;102929.88;5067549;28;20012;-72
2023/01/22 10:46:45;;;;;;;22.55;5.70;;;;;;;3.53;100.00;102941.91;5049559;28;20016;-72
2023/01/22 10:49:18;;;;;;;18.48;5.90;;;;;;;3.45;100.00;102943.97;5067463;28;20020;-73
2023/01/22 10:51:55;;;;;;;19.05;5.57;;;;;;;3.51;100.00;102941.06;5040509;28;20074;-74
2023/01/22 10:54:25;;;;;;;16.50;5.13;;;;;;;3.46;100.00;102945.75;5040990;28;20035;-74
2023/01/22 10:57:02;;;;;;;25.10;5.78;;;;;;;3.39;100.00;102933.56;5045215;28;20017;-73
2023/01/22 10:59:29;;;;;;;15.77;4.13;;;;;;;3.59;100.00;102937.22;5045197;28;20107;-74
2023/01/22 11:02:12;;;;;;;28.63;6.90;;;;;;;3.35;100.00;102933.72;5049746;28;20067;-74
2023/01/22 11:04:37;;;;;;;15.20;5.10;;;;;;;3.40;100.00;102929.06;5049354;28;20048;-72
2023/01/22 11:07:11;;;;;;;21.27;5.47;;;;;;;3.50;100.00;102931.28;5066273;28;20067;-73
2023/01/22 11:09:40;;;;;;;16.98;5.28;;;;;;;3.42;100.00;102932.53;5039562;28;20036;-72
2023/01/22 11:12:21;;;;;;;21.67;5.45;;;;;;;3.54;100.00;102927.56;5038632;28;20028;-75
2023/01/22 11:14:57;;;;;;;18.25;5.70;;;;;;;3.53;100.00;102920.47;5066585;28;20052;-73
2023/01/22 11:17:31;;;;;;;24.40;5.47;;;;;;;3.43;100.00;102919.09;5047755;28;20043;-73
2023/01/22 11:20:01;;;;;;;20.38;5.75;;;;;;;3.57;100.00;102923.00;5041835;28;20017;-75
2023/01/22 11:22:32;;;;;;;24.42;5.80;;;;;;;3.49;100.00;102921.50;5043284;28;20021;-74
2023/01/22 11:24:58;;;;;;;17.27;5.40;;;;;;;3.57;100.00;102920.31;5063157;28;20086;-74